Time;durP1;ratioP1;P1;durP2;ratioP2;P2;SDS_P1;SDS_P2;PMS_P1;PMS_P2;Temp;Humidity;BMP_temperature;BMP_pressure;BME280_temperature;BME280_humidity;BME280_pressure;Samples;Min_cycle;Max_cycle;Signal;HPM_P1;HPM_P2
2023/03/10 00:01:48;;;;;;;22.05;10.95;;;1.70;99.90;;;;;;5008934;28;20037;-64
2023/03/10 00:04:14;;;;;;;24.77;10.93;;;1.70;99.90;;;;;;5014072;28;20034;-63
2023/03/10 00:06:40;;;;;;;26.42;11.80;;;1.70;99.90;;;;;;5014784;28;20431;-63
2023/03/10 00:09:07;;;;;;;23.27;10.52;;;1.70;99.90;;;;;;4997322;28;20092;-63
2023/03/10 00:11:32;;;;;;;23.77;10.80;;;1.70;99.90;;;;;;5011287;28;20042;-63
2023/03/10 00:13:58;;;;;;;24.35;10.30;;;1.70;99.90;;;;;;4996772;28;20034;-63
2023/03/10 00:16:26;;;;;;;22.30;9.98;;;1.70;99.90;;;;;;5014101;28;20519;-64
2023/03/10 00:18:52;;;;;;;22.77;10.60;;;1.70;99.90;;;;;;5011435;28;20038;-63
2023/03/10 00:21:20;;;;;;;22.73;10.57;;;1.70;99.90;;;;;;5013829;28;20420;-63
2023/03/10 00:23:46;;;;;;;25.35;11.10;;;1.70;99.90;;;;;;5014315;28;20057;-63
2023/03/10 00:26:13;;;;;;;22.10;10.75;;;1.70;99.90;;;;;;5014548;28;20037;-64
2023/03/10 00:28:39;;;;;;;19.23;9.60;;;1.70;99.90;;;;;;5010943;28;20044;-63
2023/03/10 00:31:11;;;;;;;21.38;10.27;;;1.70;99.90;;;;;;4996062;28;20038;-63
2023/03/10 00:33:37;;;;;;;19.73;9.43;;;1.70;99.90;;;;;;5014276;28;20038;-63
2023/03/10 00:36:08;;;;;;;20.45;10.25;;;1.80;99.90;;;;;;5011052;28;20458;-63
2023/03/10 00:38:35;;;;;;;21.48;11.07;;;1.80;99.90;;;;;;5013021;28;20461;-63
2023/03/10 00:41:04;;;;;;;18.85;9.68;;;1.80;99.90;;;;;;5014165;28;20060;-63
2023/03/10 00:43:30;;;;;;;20.13;9.00;;;1.80;99.90;;;;;;5014039;28;20060;-63
2023/03/10 00:45:56;;;;;;;19.63;8.82;;;1.80;99.90;;;;;;5010804;28;20489;-63
2023/03/10 00:48:22;;;;;;;19.73;9.85;;;1.80;99.90;;;;;;5012721;28;20038;-64
2023/03/10 00:50:49;;;;;;;20.23;9.60;;;1.80;99.90;;;;;;5013919;28;20041;-64
2023/03/10 00:53:14;;;;;;;17.55;8.90;;;1.80;99.90;;;;;;5010869;28;20080;-64
2023/03/10 00:55:40;;;;;;;17.35;9.18;;;1.80;99.90;;;;;;5013189;28;20069;-63
2023/03/10 00:58:06;;;;;;;21.45;10.07;;;1.80;99.90;;;;;;5013184;28;20037;-63
2023/03/10 01:00:31;;;;;;;19.90;9.73;;;1.80;99.90;;;;;;5010619;28;20038;-63
2023/03/10 01:02:57;;;;;;;20.13;9.90;;;1.80;99.90;;;;;;5006983;28;20033;-63
2023/03/10 01:05:24;;;;;;;18.33;8.77;;;1.80;99.90;;;;;;4996263;28;20034;-63
2023/03/10 01:07:49;;;;;;;20.38;9.80;;;1.80;99.90;;;;;;4992917;28;20042;-63
2023/03/10 01:10:15;;;;;;;19.17;9.70;;;1.80;99.90;;;;;;5010088;28;20037;-63
2023/03/10 01:12:41;;;;;;;16.75;8.68;;;1.80;99.90;;;;;;5012814;28;20073;-63
2023/03/10 01:15:07;;;;;;;17.75;8.82;;;1.80;99.90;;;;;;5013489;28;20128;-63
2023/03/10 01:17:33;;;;;;;18.13;8.93;;;1.80;99.90;;;;;;5013341;28;20095;-64
2023/03/10 01:19:58;;;;;;;17.52;9.07;;;1.80;99.90;;;;;;4992617;28;20431;-64
2023/03/10 01:22:24;;;;;;;17.90;8.45;;;1.80;99.90;;;;;;5013324;28;20400;-63
2023/03/10 01:24:49;;;;;;;17.13;8.25;;;1.80;99.90;;;;;;4993289;28;20045;-63
2023/03/10 01:27:15;;;;;;;16.25;8.80;;;1.80;99.90;;;;;;5011583;28;20033;-64
2023/03/10 01:29:41;;;;;;;15.25;8.43;;;1.80;99.90;;;;;;5012897;28;20037;-63
2023/03/10 01:32:06;;;;;;;15.48;8.23;;;1.80;99.90;;;;;;5013333;28;20487;-63
2023/03/10 01:34:32;;;;;;;18.25;9.63;;;1.80;99.90;;;;;;5011267;28;20045;-64
2023/03/10 01:36:58;;;;;;;16.55;8.63;;;1.80;99.90;;;;;;5011681;28;20052;-63
2023/03/10 01:39:24;;;;;;;17.40;8.60;;;1.80;99.90;;;;;;5012692;28;20038;-64
2023/03/10 01:41:50;;;;;;;18.00;9.35;;;1.80;99.90;;;;;;5009620;28;20377;-64
2023/03/10 01:44:18;;;;;;;17.30;8.18;;;1.80;99.90;;;;;;5012351;28;20038;-63
2023/03/10 01:46:49;;;;;;;14.15;7.30;;;1.80;99.90;;;;;;5012837;28;20037;-63
2023/03/10 01:49:30;;;;;;;16.45;8.48;;;1.80;99.90;;;;;;5012708;28;20038;-63
2023/03/10 01:52:02;;;;;;;15.48;8.10;;;1.80;99.90;;;;;;5009542;28;20069;-64
2023/03/10 01:54:34;;;;;;;15.98;8.10;;;1.80;99.90;;;;;;5008138;28;20042;-63
2023/03/10 01:57:01;;;;;;;15.57;8.55;;;1.80;99.90;;;;;;4993596;28;20046;-63
2023/03/10 01:59:27;;;;;;;15.45;8.75;;;1.80;99.90;;;;;;4998954;28;20080;-64
2023/03/10 02:01:55;;;;;;;15.65;8.00;;;1.80;99.90;;;;;;5011825;28;20036;-64
2023/03/10 02:04:31;;;;;;;16.70;7.95;;;1.80;99.90;;;;;;5012512;28;20385;-64
2023/03/10 02:06:58;;;;;;;15.57;8.45;;;1.80;99.90;;;;;;5009311;28;20404;-65
2023/03/10 02:09:24;;;;;;;16.02;8.25;;;1.80;99.90;;;;;;5050405;22;20040;-65
2023/03/10 02:11:50;;;;;;;17.63;8.57;;;1.80;99.90;;;;;;5042389;28;20048;-64
2023/03/10 02:14:17;;;;;;;17.55;8.68;;;1.80;99.90;;;;;;5052439;28;20478;-65
2023/03/10 02:16:42;;;;;;;15.43;7.97;;;1.80;99.90;;;;;;5042690;28;20029;-63
2023/03/10 02:19:26;;;;;;;20.40;9.95;;;1.80;99.90;;;;;;5047336;28;20033;-64
2023/03/10 02:22:07;;;;;;;18.02;9.27;;;1.80;99.90;;;;;;5052176;28;20037;-65
2023/03/10 02:24:45;;;;;;;14.80;8.27;;;1.70;99.90;;;;;;5035408;28;20037;-64
2023/03/10 02:27:33;;;;;;;16.08;8.38;;;1.70;99.90;;;;;;5045488;28;20037;-64
2023/03/10 02:30:07;;;;;;;18.88;9.82;;;1.70;99.90;;;;;;5031675;28;20556;-64
2023/03/10 02:32:37;;;;;;;17.65;9.27;;;1.70;99.90;;;;;;5029996;28;20095;-65
2023/03/10 02:35:04;;;;;;;15.88;8.48;;;1.70;99.90;;;;;;5050722;28;20106;-64
2023/03/10 02:37:31;;;;;;;14.85;8.07;;;1.70;99.90;;;;;;5051201;28;20157;-64
2023/03/10 02:39:57;;;;;;;18.17;9.25;;;1.70;99.90;;;;;;5043610;28;20120;-64
2023/03/10 02:42:27;;;;;;;17.08;9.10;;;1.70;99.90;;;;;;5036340;28;20123;-65
2023/03/10 02:44:53;;;;;;;19.27;9.90;;;1.70;99.90;;;;;;5051561;28;20028;-65
2023/03/10 02:47:19;;;;;;;16.13;8.85;;;1.70;99.90;;;;;;5051254;28;20456;-65
2023/03/10 02:49:45;;;;;;;19.52;9.27;;;1.70;99.90;;;;;;5037549;28;20044;-65
2023/03/10 02:52:37;;;;;;;17.20;9.07;;;1.70;99.90;;;;;;5051025;28;20041;-69
2023/03/10 02:55:03;;;;;;;16.52;8.85;;;1.70;99.90;;;;;;5032276;28;20044;-64
2023/03/10 02:57:28;;;;;;;16.10;8.43;;;1.70;99.90;;;;;;5029361;28;20411;-64
2023/03/10 02:59:54;;;;;;;16.05;8.80;;;1.70;99.90;;;;;;5040479;28;20035;-65
2023/03/10 03:02:19;;;;;;;18.00;9.20;;;1.70;99.90;;;;;;5046246;28;20633;-65
2023/03/10 03:04:45;;;;;;;17.38;8.30;;;1.70;99.90;;;;;;5051284;28;20514;-64
2023/03/10 03:07:11;;;;;;;15.45;8.30;;;1.70;99.90;;;;;;5037155;28;20033;-65
2023/03/10 03:09:36;;;;;;;16.15;8.50;;;1.70;99.90;;;;;;5047309;28;20040;-64
2023/03/10 03:12:02;;;;;;;17.15;9.32;;;1.70;99.90;;;;;;5051326;28;20029;-64
2023/03/10 03:14:27;;;;;;;15.73;8.18;;;1.70;99.90;;;;;;5044907;28;20529;-65
2023/03/10 03:16:53;;;;;;;15.60;8.00;;;1.70;99.90;;;;;;5047683;28;20037;-64
2023/03/10 03:19:18;;;;;;;13.55;7.38;;;1.70;99.90;;;;;;5051003;28;20044;-63
2023/03/10 03:21:48;;;;;;;16.08;7.78;;;1.60;99.90;;;;;;5043817;28;20037;-62
2023/03/10 03:24:16;;;;;;;15.52;7.80;;;1.60;99.90;;;;;;5035353;28;20060;-64
2023/03/10 03:26:42;;;;;;;14.82;7.57;;;1.70;99.90;;;;;;5048682;28;20044;-64
2023/03/10 03:29:10;;;;;;;14.82;7.97;;;1.60;99.90;;;;;;5051083;28;20041;-64
2023/03/10 03:31:37;;;;;;;14.23;7.43;;;1.70;99.90;;;;;;5046771;28;20491;-64
2023/03/10 03:34:03;;;;;;;16.67;7.97;;;1.60;99.90;;;;;;5047281;28;20606;-64
2023/03/10 03:36:29;;;;;;;15.27;7.82;;;1.60;99.90;;;;;;5050895;28;20053;-65
2023/03/10 03:38:54;;;;;;;16.13;8.35;;;1.70;99.90;;;;;;5044043;28;20487;-65
2023/03/10 03:41:20;;;;;;;14.13;7.55;;;1.70;99.90;;;;;;5050168;28;20072;-64
2023/03/10 03:43:46;;;;;;;15.77;8.43;;;1.70;99.90;;;;;;5050583;28;20025;-65
2023/03/10 03:46:11;;;;;;;16.13;8.48;;;1.70;99.90;;;;;;5051309;28;20494;-64
2023/03/10 03:48:37;;;;;;;16.63;8.65;;;1.70;99.90;;;;;;5047232;28;20079;-64
2023/03/10 03:51:03;;;;;;;16.73;8.35;;;1.70;99.90;;;;;;5047451;28;20048;-65
2023/03/10 03:53:29;;;;;;;14.68;8.00;;;1.70;99.90;;;;;;5051038;28;20032;-64
2023/03/10 03:55:55;;;;;;;18.73;9.10;;;1.70;99.90;;;;;;5045700;28;20376;-64
2023/03/10 03:58:20;;;;;;;17.52;8.75;;;1.70;99.90;;;;;;5044733;28;20040;-64
2023/03/10 04:00:46;;;;;;;17.63;9.07;;;1.70;99.90;;;;;;5050497;28;20041;-64
2023/03/10 04:03:11;;;;;;;21.27;10.50;;;1.70;99.90;;;;;;5048653;28;20029;-63
2023/03/10 04:05:37;;;;;;;21.98;10.20;;;1.70;99.90;;;;;;5040215;28;20040;-64
2023/03/10 04:08:04;;;;;;;19.05;9.52;;;1.70;99.90;;;;;;5050409;28;20043;-64
2023/03/10 04:10:29;;;;;;;25.17;11.20;;;1.70;99.90;;;;;;5050079;28;20433;-64
2023/03/10 04:12:55;;;;;;;20.23;10.52;;;1.70;99.90;;;;;;5038322;28;20041;-64
2023/03/10 04:15:21;;;;;;;21.15;10.80;;;1.60;99.90;;;;;;5050399;28;20405;-64
2023/03/10 04:17:46;;;;;;;21.92;11.18;;;1.70;99.90;;;;;;5049858;28;20044;-63
2023/03/10 04:20:13;;;;;;;20.08;10.73;;;1.60;99.90;;;;;;5049511;28;20200;-65
2023/03/10 04:22:39;;;;;;;24.30;12.10;;;1.60;99.90;;;;;;5040426;28;20076;-64
2023/03/10 04:25:06;;;;;;;24.63;11.60;;;1.60;99.90;;;;;;5048552;28;20036;-64
2023/03/10 04:27:33;;;;;;;24.10;11.48;;;1.70;99.90;;;;;;5052955;28;20402;-64
2023/03/10 04:29:58;;;;;;;23.17;11.20;;;1.60;99.90;;;;;;5043859;28;20028;-65
2023/03/10 04:32:24;;;;;;;22.52;10.90;;;1.60;99.90;;;;;;5044629;28;20055;-65
2023/03/10 04:34:49;;;;;;;20.88;10.98;;;1.60;99.90;;;;;;5053594;28;20083;-64
2023/03/10 04:37:15;;;;;;;20.38;10.77;;;1.70;99.90;;;;;;5046817;28;20615;-64
2023/03/10 04:39:41;;;;;;;20.38;11.25;;;1.70;99.90;;;;;;5037581;28;20049;-65
2023/03/10 04:42:06;;;;;;;22.83;10.05;;;1.70;99.90;;;;;;5053640;28;20089;-64
2023/03/10 04:44:32;;;;;;;23.35;10.57;;;1.60;99.90;;;;;;5054106;28;20128;-65
2023/03/10 04:46:58;;;;;;;21.38;10.00;;;1.60;99.90;;;;;;5041386;28;20033;-64
2023/03/10 04:49:24;;;;;;;19.65;9.90;;;1.70;99.90;;;;;;5052528;28;20506;-65
2023/03/10 04:51:49;;;;;;;18.92;9.82;;;1.60;99.90;;;;;;5053541;28;20037;-63
2023/03/10 04:54:15;;;;;;;20.02;9.77;;;1.70;99.90;;;;;;5053891;28;20033;-66
2023/03/10 04:56:41;;;;;;;16.90;8.80;;;1.60;99.90;;;;;;5031812;28;20036;-64
2023/03/10 04:59:07;;;;;;;19.38;9.68;;;1.60;99.90;;;;;;5052773;28;20079;-65
2023/03/10 05:01:33;;;;;;;18.90;9.68;;;1.70;99.90;;;;;;5053978;28;20406;-64
2023/03/10 05:04:02;;;;;;;16.80;8.63;;;1.70;99.90;;;;;;5045042;28;20033;-64
2023/03/10 05:06:28;;;;;;;16.48;8.75;;;1.70;99.90;;;;;;5053332;28;20131;-64
2023/03/10 05:08:54;;;;;;;18.02;8.70;;;1.70;99.90;;;;;;5052634;28;20091;-64
2023/03/10 05:11:20;;;;;;;14.90;8.65;;;1.70;99.90;;;;;;5040649;28;20034;-64
2023/03/10 05:13:46;;;;;;;17.13;8.80;;;1.70;99.90;;;;;;5045967;28;20457;-64
2023/03/10 05:16:14;;;;;;;16.80;8.65;;;1.70;99.90;;;;;;5052844;28;20051;-65
2023/03/10 05:18:39;;;;;;;18.17;8.25;;;1.70;99.90;;;;;;5047700;28;20048;-64
2023/03/10 05:21:05;;;;;;;16.02;8.27;;;1.70;99.90;;;;;;5043068;28;20045;-64
2023/03/10 05:23:30;;;;;;;15.02;7.63;;;1.80;99.90;;;;;;5049239;28;20040;-64
2023/03/10 05:25:56;;;;;;;16.35;8.10;;;1.70;99.90;;;;;;5052795;28;20041;-65
2023/03/10 05:28:22;;;;;;;14.50;8.10;;;1.70;99.90;;;;;;5040562;28;20060;-64
2023/03/10 05:30:48;;;;;;;14.23;7.88;;;1.70;99.90;;;;;;5051665;28;20033;-65
2023/03/10 05:33:14;;;;;;;16.77;8.43;;;1.70;99.90;;;;;;5052399;28;20033;-64
2023/03/10 05:35:39;;;;;;;15.02;7.65;;;1.70;99.90;;;;;;5041945;28;20039;-64
2023/03/10 05:38:05;;;;;;;15.10;7.55;;;1.80;99.90;;;;;;5048961;28;20040;-64
2023/03/10 05:40:30;;;;;;;16.27;7.90;;;1.70;99.90;;;;;;5052607;28;20032;-65
2023/03/10 05:42:56;;;;;;;15.43;7.80;;;1.80;99.90;;;;;;5051484;28;20441;-64
2023/03/10 05:45:21;;;;;;;14.85;7.50;;;1.80;99.90;;;;;;5042126;28;20064;-64
2023/03/10 05:47:47;;;;;;;14.60;7.65;;;1.70;99.90;;;;;;5042604;28;20064;-64
2023/03/10 05:50:13;;;;;;;14.45;7.65;;;1.80;99.90;;;;;;5052056;28;20290;-64
2023/03/10 05:52:41;;;;;;;14.00;7.57;;;1.80;99.90;;;;;;5044982;28;20037;-64
2023/03/10 05:55:11;;;;;;;13.52;7.60;;;1.80;99.90;;;;;;5030107;28;20040;-65
2023/03/10 05:57:36;;;;;;;13.25;7.28;;;1.70;99.90;;;;;;5051553;28;20073;-64
2023/03/10 06:00:04;;;;;;;10.77;6.20;;;1.80;99.90;;;;;;5042801;28;20041;-64
2023/03/10 06:02:30;;;;;;;14.80;7.43;;;1.80;99.90;;;;;;5046597;28;20032;-64
2023/03/10 06:04:55;;;;;;;12.05;6.85;;;1.80;99.90;;;;;;5052031;28;20037;-64
2023/03/10 06:07:21;;;;;;;13.00;6.82;;;1.80;99.90;;;;;;5052098;28;20044;-65
2023/03/10 06:09:47;;;;;;;14.75;7.28;;;1.80;99.90;;;;;;5034535;28;20466;-65
2023/03/10 06:12:12;;;;;;;13.75;7.18;;;1.80;99.90;;;;;;5051611;28;20231;-63
2023/03/10 06:14:38;;;;;;;14.57;7.43;;;1.80;99.90;;;;;;5052229;28;20074;-66
2023/03/10 06:17:03;;;;;;;15.10;7.43;;;1.80;99.90;;;;;;5045519;28;20124;-64
2023/03/10 06:19:29;;;;;;;14.52;8.05;;;1.80;99.90;;;;;;5046997;28;20083;-64
2023/03/10 06:21:54;;;;;;;13.98;7.35;;;1.80;99.90;;;;;;5051770;28;20479;-63
2023/03/10 06:24:20;;;;;;;13.95;7.80;;;1.80;99.90;;;;;;5052178;28;20039;-65
2023/03/10 06:26:46;;;;;;;15.10;7.65;;;1.80;99.90;;;;;;5024553;28;20029;-63
2023/03/10 06:29:11;;;;;;;16.63;8.48;;;1.80;99.90;;;;;;5033189;28;20430;-64
2023/03/10 06:31:37;;;;;;;14.50;7.65;;;1.90;99.90;;;;;;5047995;28;20047;-62
2023/03/10 06:34:02;;;;;;;12.30;6.75;;;1.90;99.90;;;;;;5052179;28;20041;-64
2023/03/10 06:36:30;;;;;;;13.57;7.47;;;1.90;99.90;;;;;;5037760;28;20052;-64
2023/03/10 06:38:56;;;;;;;13.13;7.20;;;1.90;99.90;;;;;;5046965;28;20051;-64
2023/03/10 06:41:22;;;;;;;18.60;7.45;;;1.90;99.90;;;;;;5051062;28;20550;-64
2023/03/10 06:43:48;;;;;;;14.02;7.47;;;1.90;99.90;;;;;;5027324;28;20052;-64
2023/03/10 06:46:14;;;;;;;13.55;7.32;;;1.90;99.90;;;;;;5049325;28;20037;-64
2023/03/10 06:48:41;;;;;;;18.35;7.47;;;2.00;99.90;;;;;;5050714;28;20128;-64
2023/03/10 06:51:14;;;;;;;13.63;6.60;;;2.00;99.90;;;;;;5033682;28;20052;-64
2023/03/10 06:53:39;;;;;;;15.57;7.22;;;2.00;99.90;;;;;;5030264;28;20116;-63
2023/03/10 06:56:15;;;;;;;14.48;7.22;;;2.10;99.90;;;;;;5050792;28;20468;-64
2023/03/10 06:58:41;;;;;;;14.50;7.88;;;2.10;99.90;;;;;;5050369;28;20044;-63
2023/03/10 07:01:07;;;;;;;13.52;7.00;;;2.10;99.90;;;;;;5040080;28;20041;-64
2023/03/10 07:03:34;;;;;;;17.48;7.65;;;2.10;99.90;;;;;;5050777;28;20120;-67
2023/03/10 07:06:00;;;;;;;15.07;7.53;;;2.10;99.90;;;;;;5050466;28;20037;-63
2023/03/10 07:08:27;;;;;;;15.18;8.02;;;2.10;99.90;;;;;;5040762;28;20492;-64
2023/03/10 07:10:54;;;;;;;13.25;7.07;;;2.10;99.90;;;;;;5043740;28;20507;-63
2023/03/10 07:13:20;;;;;;;15.55;7.88;;;2.20;99.90;;;;;;5050703;28;20083;-63
2023/03/10 07:15:47;;;;;;;13.50;7.20;;;2.20;99.90;;;;;;5047681;28;20392;-63
2023/03/10 07:18:13;;;;;;;13.63;7.35;;;2.20;99.90;;;;;;5038236;28;20061;-64
2023/03/10 07:20:43;;;;;;;15.93;8.07;;;2.20;99.90;;;;;;5048109;28;20415;-64
2023/03/10 07:23:09;;;;;;;15.32;7.63;;;2.20;99.90;;;;;;5051099;28;20052;-64
2023/03/10 07:25:36;;;;;;;15.45;8.48;;;2.30;99.90;;;;;;5041926;28;20026;-65
2023/03/10 07:28:03;;;;;;;14.80;7.25;;;2.30;99.90;;;;;;5043749;28;20040;-64
2023/03/10 07:30:29;;;;;;;16.45;8.52;;;2.30;99.90;;;;;;5050624;28;20071;-63
2023/03/10 07:32:54;;;;;;;16.77;8.93;;;2.30;99.90;;;;;;5044786;28;20061;-63
2023/03/10 07:35:20;;;;;;;16.08;8.77;;;2.30;99.90;;;;;;5047234;28;20059;-64
2023/03/10 07:37:45;;;;;;;19.17;9.73;;;2.30;99.90;;;;;;5050444;28;20037;-64
2023/03/10 07:40:11;;;;;;;18.92;9.23;;;2.30;99.90;;;;;;5048069;28;20033;-63
2023/03/10 07:42:37;;;;;;;18.17;9.63;;;2.20;99.90;;;;;;5048541;28;20034;-62
2023/03/10 07:45:03;;;;;;;17.73;8.48;;;2.20;99.90;;;;;;5050870;28;20040;-64
2023/03/10 07:47:29;;;;;;;18.35;9.18;;;2.30;99.90;;;;;;5050717;28;20048;-63
2023/03/10 07:49:55;;;;;;;19.83;10.73;;;2.20;99.90;;;;;;5047279;28;20040;-64
2023/03/10 07:52:21;;;;;;;17.75;9.85;;;2.30;99.90;;;;;;5050015;28;20033;-64
2023/03/10 07:54:46;;;;;;;19.83;9.70;;;2.20;99.90;;;;;;5050340;28;20449;-64
2023/03/10 07:57:13;;;;;;;19.23;10.40;;;2.30;99.90;;;;;;5047621;28;20048;-64
2023/03/10 07:59:40;;;;;;;19.67;9.68;;;2.30;99.90;;;;;;5038557;28;20052;-64
2023/03/10 08:02:06;;;;;;;19.95;10.48;;;2.30;99.90;;;;;;5041812;28;20468;-62
2023/03/10 08:04:32;;;;;;;21.42;10.43;;;2.40;99.90;;;;;;5046228;28;20433;-64
2023/03/10 08:07:00;;;;;;;21.73;11.02;;;2.40;99.90;;;;;;5042256;28;20025;-64
2023/03/10 08:09:27;;;;;;;19.10;10.00;;;2.40;99.90;;;;;;5047535;28;20499;-63
2023/03/10 08:11:53;;;;;;;21.02;10.90;;;2.50;99.90;;;;;;5042543;28;20045;-62
2023/03/10 08:14:18;;;;;;;21.60;10.45;;;2.50;99.90;;;;;;5052805;28;20055;-63
2023/03/10 08:16:44;;;;;;;23.38;11.35;;;2.50;99.90;;;;;;5041400;28;20395;-63
2023/03/10 08:19:09;;;;;;;22.77;10.38;;;2.50;99.90;;;;;;5029113;28;20478;-62
2023/03/10 08:21:35;;;;;;;22.17;11.23;;;2.50;99.90;;;;;;5053887;28;20499;-62
2023/03/10 08:24:00;;;;;;;19.13;9.65;;;2.50;99.90;;;;;;5042823;28;20491;-63
2023/03/10 08:26:26;;;;;;;22.13;10.80;;;2.50;99.90;;;;;;5052504;28;20471;-63
2023/03/10 08:28:51;;;;;;;21.10;11.55;;;2.60;99.90;;;;;;5053780;28;20051;-63
2023/03/10 08:31:19;;;;;;;23.75;12.18;;;2.50;99.90;;;;;;5054326;28;20132;-62
2023/03/10 08:33:46;;;;;;;20.98;10.73;;;2.50;99.90;;;;;;5041851;28;20487;-63
2023/03/10 08:36:14;;;;;;;24.25;11.70;;;2.60;99.90;;;;;;5053777;28;20036;-62
2023/03/10 08:38:41;;;;;;;18.80;9.48;;;2.60;99.90;;;;;;5052871;28;20041;-62
2023/03/10 08:41:14;;;;;;;22.50;11.40;;;2.60;99.90;;;;;;5040616;28;20128;-63
2023/03/10 08:43:40;;;;;;;23.15;11.60;;;2.70;99.90;;;;;;5052869;28;20062;-62
2023/03/10 08:46:07;;;;;;;24.67;12.10;;;2.80;99.90;;;;;;5053510;28;20499;-62
2023/03/10 08:48:32;;;;;;;21.98;11.63;;;2.80;99.90;;;;;;5053335;28;20029;-62
2023/03/10 08:50:58;;;;;;;22.20;11.98;;;2.80;99.90;;;;;;5039471;28;20506;-62
2023/03/10 08:53:24;;;;;;;22.10;11.25;;;2.90;99.90;;;;;;5050895;28;20554;-62
2023/03/10 08:55:49;;;;;;;22.60;11.70;;;2.90;99.90;;;;;;5049813;28;20052;-62
2023/03/10 08:58:15;;;;;;;22.27;11.77;;;2.90;99.90;;;;;;5039869;28;20403;-62
2023/03/10 09:00:41;;;;;;;22.20;11.23;;;2.90;99.90;;;;;;5050177;28;20041;-62
2023/03/10 09:03:09;;;;;;;21.55;11.63;;;2.90;99.90;;;;;;5044129;28;20284;-62
2023/03/10 09:05:36;;;;;;;23.20;11.68;;;2.90;99.90;;;;;;5047806;28;20040;-63
2023/03/10 09:08:02;;;;;;;21.33;11.30;;;2.90;99.90;;;;;;5052613;28;20041;-63
2023/03/10 09:10:28;;;;;;;20.77;11.02;;;2.90;99.90;;;;;;5050952;28;20107;-64
2023/03/10 09:12:54;;;;;;;22.45;11.50;;;2.90;99.90;;;;;;5025858;28;20060;-63
2023/03/10 09:15:20;;;;;;;23.38;11.88;;;2.80;99.90;;;;;;5047124;28;20098;-62
2023/03/10 09:17:46;;;;;;;20.25;11.07;;;2.80;99.90;;;;;;5052540;28;20037;-62
2023/03/10 09:20:14;;;;;;;23.50;11.68;;;2.80;99.90;;;;;;5052769;28;20120;-62
2023/03/10 09:22:40;;;;;;;21.63;11.45;;;2.80;99.90;;;;;;5041904;28;20029;-62
2023/03/10 09:25:06;;;;;;;20.35;10.98;;;2.80;99.90;;;;;;5050538;28;20265;-62
2023/03/10 09:27:32;;;;;;;20.63;10.38;;;2.80;99.90;;;;;;5047749;28;20052;-63
2023/03/10 09:29:57;;;;;;;21.67;10.82;;;2.80;99.90;;;;;;5048656;28;20029;-62
2023/03/10 09:32:23;;;;;;;22.20;11.35;;;2.80;99.90;;;;;;5052105;28;20029;-62
2023/03/10 09:34:49;;;;;;;19.13;10.55;;;2.80;99.90;;;;;;5052355;28;20030;-62
2023/03/10 09:37:15;;;;;;;19.33;10.77;;;2.80;99.90;;;;;;5052736;28;20040;-63
2023/03/10 09:39:40;;;;;;;22.63;10.73;;;2.80;99.90;;;;;;5044691;28;20033;-62
2023/03/10 09:42:26;;;;;;;20.70;10.88;;;2.90;99.90;;;;;;5029591;28;20037;-62
2023/03/10 09:45:03;;;;;;;19.98;11.18;;;2.80;99.90;;;;;;5052393;28;20460;-62
2023/03/10 09:47:59;;;;;;;19.63;10.77;;;2.80;99.90;;;;;;5038216;28;20037;-62
2023/03/10 09:50:46;;;;;;;23.33;11.48;;;2.80;99.90;;;;;;5047843;28;20036;-63
2023/03/10 09:53:47;;;;;;;17.95;10.55;;;2.80;99.90;;;;;;5032621;28;20112;-62
2023/03/10 09:56:17;;;;;;;20.63;10.95;;;2.80;99.90;;;;;;5030852;28;20069;-63
2023/03/10 09:58:49;;;;;;;20.92;10.88;;;2.80;99.90;;;;;;5041709;28;20036;-67
2023/03/10 10:01:20;;;;;;;21.17;11.00;;;2.70;99.90;;;;;;5035844;28;20114;-62
2023/03/10 10:03:48;;;;;;;;;;;2.70;99.90;;;;;;5049021;28;20033;-62
2023/03/10 10:06:18;;;;;;;21.13;10.80;;;2.70;99.90;;;;;;5042363;28;19990;-64
2023/03/10 10:08:52;;;;;;;21.33;11.13;;;2.70;99.90;;;;;;5049950;28;20426;-64
2023/03/10 10:11:18;;;;;;;22.70;11.65;;;2.80;99.90;;;;;;5052543;28;20095;-63
2023/03/10 10:13:43;;;;;;;22.02;12.23;;;2.80;99.90;;;;;;5038520;28;20495;-62
2023/03/10 10:16:19;;;;;;;21.58;10.95;;;2.80;99.90;;;;;;5048540;28;20041;-63
2023/03/10 10:19:13;;;;;;;22.02;10.95;;;2.80;99.90;;;;;;5040238;28;20529;-63
2023/03/10 10:21:56;;;;;;;20.90;11.15;;;2.80;99.90;;;;;;5038532;28;20048;-62
2023/03/10 10:24:22;;;;;;;21.35;11.13;;;2.70;99.90;;;;;;5050798;28;20518;-63
2023/03/10 10:26:48;;;;;;;23.30;11.75;;;2.70;99.90;;;;;;5050693;28;20033;-62
2023/03/10 10:29:17;;;;;;;23.48;12.40;;;2.70;99.90;;;;;;5039264;28;20045;-62
2023/03/10 10:32:11;;;;;;;23.60;12.13;;;2.70;99.90;;;;;;5042946;28;20029;-63
2023/03/10 10:34:46;;;;;;;24.10;11.82;;;2.70;99.90;;;;;;5052174;28;20472;-63
2023/03/10 10:37:34;;;;;;;25.60;12.30;;;2.70;99.90;;;;;;5048030;28;20116;-63
2023/03/10 10:40:00;;;;;;;21.67;11.25;;;2.70;99.90;;;;;;5043560;28;20052;-62
2023/03/10 10:42:33;;;;;;;25.13;11.70;;;2.70;99.90;;;;;;5035734;28;20033;-62
2023/03/10 10:45:24;;;;;;;23.65;12.25;;;2.60;99.90;;;;;;5044622;28;20044;-62
2023/03/10 10:47:50;;;;;;;21.70;11.27;;;2.60;99.90;;;;;;5050812;28;20564;-62
2023/03/10 10:50:28;;;;;;;26.48;13.15;;;2.60;99.90;;;;;;5038823;28;20562;-61
2023/03/10 10:53:15;;;;;;;22.33;11.20;;;2.60;99.90;;;;;;5045059;28;20029;-62
2023/03/10 10:55:42;;;;;;;23.85;12.30;;;2.60;99.90;;;;;;5047897;28;20072;-62
2023/03/10 10:58:35;;;;;;;25.33;12.52;;;2.60;99.90;;;;;;5049825;28;20064;-63
2023/03/10 11:01:07;;;;;;;22.70;12.25;;;2.70;99.90;;;;;;5047169;28;20087;-62
2023/03/10 11:03:36;;;;;;;25.42;11.63;;;2.70;99.90;;;;;;5043471;28;20036;-64
2023/03/10 11:06:23;;;;;;;26.35;12.70;;;2.70;99.90;;;;;;5039952;28;20033;-63
2023/03/10 11:08:51;;;;;;;22.60;12.13;;;2.70;99.90;;;;;;5034576;28;20053;-62
2023/03/10 11:12:03;;;;;;;23.98;12.70;;;2.70;99.90;;;;;;5022653;28;20049;-64
2023/03/10 11:14:41;;;;;;;24.05;11.95;;;2.70;99.90;;;;;;5043221;28;20124;-62
2023/03/10 11:17:32;;;;;;;24.63;12.32;;;2.60;99.90;;;;;;5045958;28;20045;-66
2023/03/10 11:20:15;;;;;;;22.38;11.93;;;2.70;99.90;;;;;;5032546;28;20091;-62
2023/03/10 11:23:05;;;;;;;25.00;12.77;;;2.70;99.90;;;;;;5037971;28;20139;-62
2023/03/10 11:25:41;;;;;;;26.27;13.50;;;2.70;99.90;;;;;;5051461;28;20041;-62
2023/03/10 11:28:19;;;;;;;26.30;13.50;;;2.70;99.90;;;;;;5031390;28;20044;-62
2023/03/10 11:31:13;;;;;;;24.30;12.27;;;2.80;99.90;;;;;;5049278;28;20052;-63
2023/03/10 11:33:44;;;;;;;23.48;12.02;;;2.70;99.90;;;;;;5027070;28;20064;-63
2023/03/10 11:36:22;;;;;;;23.00;12.13;;;2.80;99.90;;;;;;5051566;28;20045;-61
2023/03/10 11:38:51;;;;;;;24.73;12.50;;;2.80;99.90;;;;;;5041070;28;20543;-63
2023/03/10 11:41:27;;;;;;;23.63;12.70;;;2.80;99.90;;;;;;5038167;28;20049;-62
2023/03/10 11:44:28;;;;;;;23.45;12.18;;;2.90;99.90;;;;;;5041538;28;20045;-62
2023/03/10 11:47:03;;;;;;;20.17;10.02;;;2.90;99.90;;;;;;5047574;28;20037;-62
2023/03/10 11:49:36;;;;;;;26.10;11.38;;;3.00;99.90;;;;;;5054221;28;20048;-62
2023/03/10 11:52:16;;;;;;;23.48;12.18;;;3.00;99.90;;;;;;5041352;28;20056;-63
2023/03/10 11:54:48;;;;;;;20.85;11.15;;;3.00;99.90;;;;;;5048084;28;20045;-64
2023/03/10 11:57:18;;;;;;;22.77;11.50;;;3.00;99.90;;;;;;5032920;28;20040;-63
2023/03/10 12:00:06;;;;;;;21.50;11.38;;;3.00;99.90;;;;;;5036222;28;20048;-62
2023/03/10 12:03:05;;;;;;;24.65;11.82;;;3.00;99.90;;;;;;5047100;28;20462;-62
2023/03/10 12:05:41;;;;;;;22.90;12.18;;;3.00;99.90;;;;;;5044249;28;20156;-62
2023/03/10 12:08:07;;;;;;;22.75;11.52;;;3.10;99.90;;;;;;5054059;28;20029;-63
2023/03/10 12:10:38;;;;;;;23.70;11.80;;;3.00;99.90;;;;;;5038528;28;20046;-63
2023/03/10 12:13:04;;;;;;;20.25;11.00;;;3.10;99.90;;;;;;5045942;28;20299;-63
2023/03/10 12:15:35;;;;;;;21.20;11.00;;;3.10;99.90;;;;;;5054049;28;20099;-64
2023/03/10 12:18:03;;;;;;;23.48;11.85;;;3.10;99.90;;;;;;5024488;28;20029;-64
2023/03/10 12:20:30;;;;;;;19.60;10.20;;;3.10;99.90;;;;;;5040052;28;20470;-62
2023/03/10 12:22:59;;;;;;;20.92;11.13;;;3.20;99.90;;;;;;5052621;28;20087;-63
2023/03/10 12:25:28;;;;;;;22.70;11.02;;;3.20;99.90;;;;;;5044518;28;20396;-62
2023/03/10 12:28:15;;;;;;;20.35;10.75;;;3.10;99.90;;;;;;5044440;28;20122;-63
2023/03/10 12:31:10;;;;;;;20.17;11.00;;;3.00;99.90;;;;;;5053481;28;20395;-63
2023/03/10 12:33:40;;;;;;;20.73;11.10;;;3.00;99.90;;;;;;5045028;28;20041;-62
2023/03/10 12:36:17;;;;;;;22.67;11.77;;;2.90;99.90;;;;;;5052401;28;20037;-63
2023/03/10 12:38:56;;;;;;;22.92;11.38;;;2.90;99.90;;;;;;5050893;28;20033;-63
2023/03/10 12:41:25;;;;;;;23.08;12.23;;;2.90;99.90;;;;;;5051450;28;20048;-62
2023/03/10 12:44:00;;;;;;;26.27;11.48;;;2.80;99.90;;;;;;5040538;28;20052;-64
2023/03/10 12:46:44;;;;;;;20.65;11.15;;;2.80;99.90;;;;;;5037986;28;20033;-62
2023/03/10 12:49:34;;;;;;;21.20;11.27;;;2.60;99.90;;;;;;5041363;28;20098;-62
2023/03/10 12:52:06;;;;;;;22.52;11.55;;;2.60;99.90;;;;;;5037785;28;20044;-62
2023/03/10 12:55:01;;;;;;;23.50;11.60;;;2.60;99.90;;;;;;5043797;28;20036;-62